Time;durP1;ratioP1;P1;durP2;ratioP2;P2;SDS_P1;SDS_P2;PMS_P1;PMS_P2;Temp;Humidity;BMP_temperature;BMP_pressure;BME280_temperature;BME280_humidity;BME280_pressure;Samples;Min_cycle;Max_cycle;Signal;HPM_P1;HPM_P2
2022/03/07 00:01:42;;;;;;;44.53;30.63;;;2.30;56.20;;;;;;5111446;28;20023;-75
2022/03/07 00:04:08;;;;;;;46.60;31.23;;;2.30;56.30;;;;;;5112733;28;20115;-74
2022/03/07 00:06:33;;;;;;;45.22;31.17;;;2.30;56.20;;;;;;5113309;28;20055;-74
2022/03/07 00:08:59;;;;;;;45.38;30.17;;;2.30;56.30;;;;;;5112597;28;20443;-74
2022/03/07 00:11:25;;;;;;;48.65;30.02;;;2.30;56.40;;;;;;5113098;28;20028;-72
2022/03/07 00:13:51;;;;;;;46.05;29.58;;;2.30;56.50;;;;;;5112664;28;20023;-74
2022/03/07 00:16:17;;;;;;;43.03;29.40;;;2.30;56.40;;;;;;5113493;28;20345;-74
2022/03/07 00:18:42;;;;;;;42.70;28.67;;;2.30;56.40;;;;;;5112502;28;20051;-74
2022/03/07 00:21:09;;;;;;;45.70;30.27;;;2.30;56.40;;;;;;5111715;28;20070;-74
2022/03/07 00:23:35;;;;;;;43.92;30.05;;;2.30;56.70;;;;;;5113037;28;20024;-74
2022/03/07 00:26:00;;;;;;;46.97;30.10;;;2.30;56.50;;;;;;5112344;28;20205;-74
2022/03/07 00:28:26;;;;;;;50.90;32.13;;;2.20;56.60;;;;;;5112586;28;20107;-73
2022/03/07 00:30:51;;;;;;;45.05;30.92;;;2.20;57.00;;;;;;5112416;28;20032;-73
2022/03/07 00:33:17;;;;;;;43.60;30.63;;;2.20;56.90;;;;;;5113070;28;20023;-73
2022/03/07 00:35:43;;;;;;;45.33;30.17;;;2.20;56.80;;;;;;5111545;28;20028;-73
2022/03/07 00:38:09;;;;;;;45.70;29.65;;;2.20;56.90;;;;;;5113283;28;20024;-73
2022/03/07 00:40:35;;;;;;;46.22;30.55;;;2.20;57.10;;;;;;5112772;28;20097;-74
2022/03/07 00:43:00;;;;;;;44.90;30.08;;;2.20;57.00;;;;;;5112265;28;20028;-74
2022/03/07 00:45:26;;;;;;;43.95;30.13;;;2.20;57.10;;;;;;5112576;28;20028;-74
2022/03/07 00:47:52;;;;;;;42.97;29.73;;;2.10;57.00;;;;;;5112239;28;20020;-74
2022/03/07 00:50:17;;;;;;;42.40;29.10;;;2.10;57.00;;;;;;5112591;28;20123;-74
2022/03/07 00:52:43;;;;;;;43.88;29.67;;;2.10;57.60;;;;;;5111993;28;20395;-77
2022/03/07 00:55:09;;;;;;;43.85;30.17;;;2.10;57.00;;;;;;5112608;28;20047;-74
2022/03/07 00:57:35;;;;;;;42.00;28.63;;;2.10;57.00;;;;;;5112738;28;20392;-74
2022/03/07 01:00:01;;;;;;;42.47;29.42;;;2.10;56.80;;;;;;5112062;28;20106;-74
2022/03/07 01:02:26;;;;;;;44.05;28.60;;;2.10;56.80;;;;;;5112238;28;20072;-74
2022/03/07 01:04:55;;;;;;;41.60;28.98;;;2.10;56.90;;;;;;5110337;28;20468;-74
2022/03/07 01:07:20;;;;;;;45.97;30.15;;;2.10;56.80;;;;;;5113617;28;20032;-74
2022/03/07 01:09:46;;;;;;;43.72;29.40;;;2.00;56.70;;;;;;5113890;28;20024;-75
2022/03/07 01:12:12;;;;;;;43.05;29.08;;;2.00;56.60;;;;;;5114345;28;20023;-74
2022/03/07 01:14:37;;;;;;;43.63;29.50;;;2.00;56.70;;;;;;5113723;28;20391;-74
2022/03/07 01:17:03;;;;;;;41.53;28.17;;;2.00;56.70;;;;;;5112087;28;20024;-73
2022/03/07 01:19:29;;;;;;;43.15;28.90;;;2.00;56.40;;;;;;5112158;28;20035;-74
2022/03/07 01:21:54;;;;;;;46.53;30.05;;;2.00;56.30;;;;;;5112322;28;20031;-74
2022/03/07 01:24:20;;;;;;;46.00;31.13;;;2.00;56.70;;;;;;5112222;28;20395;-73
2022/03/07 01:26:46;;;;;;;46.20;30.10;;;2.00;56.50;;;;;;5111783;28;20036;-76
2022/03/07 01:29:12;;;;;;;44.40;28.90;;;2.00;56.30;;;;;;5112258;28;20038;-74
2022/03/07 01:31:37;;;;;;;42.88;29.10;;;1.90;56.40;;;;;;5112289;28;20031;-74
2022/03/07 01:34:03;;;;;;;49.00;31.30;;;1.90;56.40;;;;;;5111635;28;20114;-74
2022/03/07 01:36:29;;;;;;;45.20;29.40;;;1.90;56.50;;;;;;5112341;28;20520;-74
2022/03/07 01:38:54;;;;;;;42.55;29.50;;;1.90;56.50;;;;;;5111365;28;20480;-74
2022/03/07 01:41:20;;;;;;;47.80;30.20;;;1.90;56.60;;;;;;5111907;28;20077;-73
2022/03/07 01:43:46;;;;;;;42.83;29.00;;;1.90;56.60;;;;;;5112138;28;20110;-73
2022/03/07 01:46:12;;;;;;;43.60;28.63;;;1.90;56.60;;;;;;5111897;28;20019;-73
2022/03/07 01:48:38;;;;;;;41.63;28.30;;;1.90;56.30;;;;;;5114935;28;20039;-74
2022/03/07 01:51:04;;;;;;;47.90;29.75;;;1.90;56.10;;;;;;5115483;28;20069;-74
2022/03/07 01:53:30;;;;;;;42.65;28.40;;;1.90;56.40;;;;;;5115928;28;20106;-74
2022/03/07 01:55:56;;;;;;;43.25;28.85;;;1.90;56.70;;;;;;5114364;28;20125;-75
2022/03/07 01:58:22;;;;;;;45.42;29.58;;;1.90;56.00;;;;;;5115212;28;20032;-74
2022/03/07 02:00:48;;;;;;;40.83;27.85;;;1.90;55.90;;;;;;5115702;28;20106;-77
2022/03/07 02:03:14;;;;;;;41.10;28.45;;;1.90;56.00;;;;;;5114495;28;20111;-74
2022/03/07 02:05:40;;;;;;;46.00;29.13;;;1.90;56.00;;;;;;5115581;28;20023;-74
2022/03/07 02:08:07;;;;;;;42.40;27.90;;;1.90;55.90;;;;;;5114877;28;20113;-74
2022/03/07 02:10:33;;;;;;;44.03;28.02;;;1.90;55.50;;;;;;5115419;28;20092;-74
2022/03/07 02:12:59;;;;;;;39.88;26.52;;;1.90;55.60;;;;;;5113533;28;20039;-74
2022/03/07 02:15:25;;;;;;;37.45;25.90;;;1.90;54.70;;;;;;5115019;28;20020;-74
2022/03/07 02:17:50;;;;;;;40.55;26.00;;;1.90;54.80;;;;;;5113383;28;20095;-74
2022/03/07 02:20:16;;;;;;;42.95;26.02;;;1.90;54.80;;;;;;5115225;28;20543;-74
2022/03/07 02:22:43;;;;;;;35.05;25.23;;;1.90;54.70;;;;;;5115246;28;20027;-74
2022/03/07 02:25:09;;;;;;;37.33;25.85;;;1.90;54.20;;;;;;5114675;28;20541;-74
2022/03/07 02:27:35;;;;;;;34.33;24.17;;;1.90;54.20;;;;;;5115198;28;20031;-73
2022/03/07 02:30:05;;;;;;;37.97;25.65;;;1.90;54.00;;;;;;5113124;28;20036;-74
2022/03/07 02:32:31;;;;;;;34.72;24.92;;;1.90;53.90;;;;;;5115142;28;20027;-74
2022/03/07 02:34:57;;;;;;;39.47;25.67;;;1.90;54.00;;;;;;5114314;28;20454;-73
2022/03/07 02:37:23;;;;;;;35.92;24.88;;;1.90;53.70;;;;;;5114902;28;20023;-73
2022/03/07 02:39:49;;;;;;;34.33;24.58;;;1.90;53.40;;;;;;5114519;28;20050;-73
2022/03/07 02:42:15;;;;;;;34.75;24.08;;;1.90;53.30;;;;;;5114227;28;20027;-73
2022/03/07 02:44:41;;;;;;;39.22;24.85;;;1.90;53.30;;;;;;5114444;28;20512;-73
2022/03/07 02:47:07;;;;;;;37.63;24.70;;;1.90;53.30;;;;;;5114126;28;20020;-74
2022/03/07 02:49:32;;;;;;;34.78;24.33;;;1.90;53.50;;;;;;5114672;28;20038;-73
2022/03/07 02:51:58;;;;;;;32.65;22.85;;;1.90;53.30;;;;;;5113785;28;20059;-75
2022/03/07 02:54:24;;;;;;;32.42;22.98;;;1.90;53.20;;;;;;5114352;28;20034;-74
2022/03/07 02:56:49;;;;;;;31.92;22.63;;;1.90;53.00;;;;;;5114644;28;20036;-73
2022/03/07 02:59:16;;;;;;;30.75;22.45;;;1.90;53.00;;;;;;5112987;28;20034;-73
2022/03/07 03:01:44;;;;;;;29.77;21.92;;;1.90;52.90;;;;;;5114182;28;20133;-74
2022/03/07 03:04:29;;;;;;;34.28;23.02;;;1.90;52.80;;;;;;5113790;28;20111;-73
2022/03/07 03:06:54;;;;;;;34.67;23.67;;;1.90;52.80;;;;;;5113018;28;20028;-74
2022/03/07 03:09:20;;;;;;;33.72;24.10;;;1.90;52.90;;;;;;5114092;28;20525;-74
2022/03/07 03:11:45;;;;;;;31.30;22.15;;;1.90;52.80;;;;;;5114140;28;20027;-74
2022/03/07 03:14:11;;;;;;;32.50;24.40;;;1.90;52.80;;;;;;5113421;28;20430;-74
2022/03/07 03:16:37;;;;;;;36.95;25.40;;;1.90;52.60;;;;;;5113960;28;20051;-74
2022/03/07 03:19:02;;;;;;;34.30;24.88;;;1.90;52.70;;;;;;5112409;28;20028;-74
2022/03/07 03:21:28;;;;;;;35.65;24.88;;;1.90;53.00;;;;;;5114192;28;20026;-74
2022/03/07 03:23:54;;;;;;;39.50;26.92;;;1.90;53.10;;;;;;5113460;28;20108;-75
2022/03/07 03:26:19;;;;;;;38.97;25.55;;;1.90;53.10;;;;;;5113964;28;20574;-74
2022/03/07 03:28:45;;;;;;;39.58;26.65;;;1.90;53.60;;;;;;5113824;28;20031;-73
2022/03/07 03:31:11;;;;;;;38.28;26.50;;;1.90;53.50;;;;;;5113265;28;20028;-73
2022/03/07 03:33:42;;;;;;;41.78;27.58;;;1.90;53.70;;;;;;5114003;28;20030;-73
2022/03/07 03:36:08;;;;;;;43.88;28.20;;;1.90;54.00;;;;;;5113245;28;20016;-73
2022/03/07 03:38:33;;;;;;;44.45;28.92;;;1.90;54.20;;;;;;5113708;28;20027;-73
2022/03/07 03:40:59;;;;;;;46.55;29.88;;;1.90;54.50;;;;;;5113036;28;20035;-73
2022/03/07 03:43:25;;;;;;;47.67;30.13;;;1.90;54.40;;;;;;5113277;28;20483;-72
2022/03/07 03:45:50;;;;;;;42.15;29.42;;;1.90;54.40;;;;;;5113353;28;20038;-72
2022/03/07 03:48:16;;;;;;;41.83;28.13;;;1.90;54.50;;;;;;5113143;28;20051;-73
2022/03/07 03:50:41;;;;;;;44.47;29.65;;;1.90;54.50;;;;;;5113716;28;20460;-74
2022/03/07 03:53:07;;;;;;;48.55;31.40;;;1.90;54.80;;;;;;5112649;28;20057;-75
2022/03/07 03:55:33;;;;;;;47.35;30.25;;;1.90;54.90;;;;;;5120167;28;20043;-75
2022/03/07 03:57:58;;;;;;;46.38;30.98;;;1.90;55.10;;;;;;5117100;28;20020;-74
2022/03/07 04:00:24;;;;;;;45.17;30.23;;;1.90;55.00;;;;;;5114847;28;20090;-74
2022/03/07 04:02:50;;;;;;;47.42;30.45;;;1.90;55.10;;;;;;5113859;28;20039;-74
2022/03/07 04:05:16;;;;;;;45.38;30.13;;;1.90;55.20;;;;;;5113279;28;20200;-73
2022/03/07 04:07:43;;;;;;;48.78;32.75;;;1.90;55.40;;;;;;5113328;28;20024;-74
2022/03/07 04:10:10;;;;;;;50.08;33.45;;;1.80;55.40;;;;;;5112543;28;20023;-74
2022/03/07 04:12:35;;;;;;;51.70;32.45;;;1.80;56.10;;;;;;5113332;28;20034;-74
2022/03/07 04:15:01;;;;;;;49.85;32.72;;;1.90;55.70;;;;;;5112491;28;20456;-75
2022/03/07 04:17:27;;;;;;;48.03;32.22;;;1.90;55.70;;;;;;5113373;28;20458;-74
2022/03/07 04:19:53;;;;;;;48.50;33.53;;;1.90;56.00;;;;;;5113403;28;20059;-74
2022/03/07 04:22:19;;;;;;;53.20;35.40;;;1.90;56.30;;;;;;5112744;28;20058;-74
2022/03/07 04:24:44;;;;;;;51.45;33.30;;;1.80;56.10;;;;;;5113101;28;20422;-74
2022/03/07 04:27:10;;;;;;;54.40;36.08;;;1.80;56.50;;;;;;5112495;28;20023;-72
2022/03/07 04:29:36;;;;;;;52.08;33.33;;;1.80;56.90;;;;;;5112944;28;20063;-74
2022/03/07 04:32:01;;;;;;;53.35;33.15;;;1.80;57.20;;;;;;5112588;28;20361;-75
2022/03/07 04:34:27;;;;;;;57.42;33.90;;;1.80;57.30;;;;;;5112670;28;20361;-75
2022/03/07 04:36:53;;;;;;;51.17;35.17;;;1.80;57.40;;;;;;5112680;28;20473;-74
2022/03/07 04:39:18;;;;;;;53.00;34.20;;;1.80;57.50;;;;;;5112123;28;20115;-74
2022/03/07 04:41:44;;;;;;;56.55;34.40;;;1.70;57.60;;;;;;5112763;28;20024;-72
2022/03/07 04:44:11;;;;;;;54.03;35.00;;;1.70;57.80;;;;;;5112149;28;20464;-73
2022/03/07 04:46:37;;;;;;;50.83;33.70;;;1.70;58.10;;;;;;5112785;28;20135;-74
2022/03/07 04:49:03;;;;;;;51.53;34.47;;;1.70;58.10;;;;;;5112158;28;20024;-75
2022/03/07 04:51:29;;;;;;;52.55;34.08;;;1.70;58.10;;;;;;5112636;28;20469;-74
2022/03/07 04:53:55;;;;;;;51.20;34.63;;;1.70;58.20;;;;;;5112629;28;20110;-74
2022/03/07 04:56:20;;;;;;;49.50;33.10;;;1.70;58.30;;;;;;5112070;28;20097;-74
2022/03/07 04:58:46;;;;;;;47.60;32.58;;;1.70;58.00;;;;;;5112821;28;20434;-74
2022/03/07 05:01:14;;;;;;;48.33;33.30;;;1.70;57.80;;;;;;5111708;28;20028;-74
2022/03/07 05:03:40;;;;;;;48.95;32.50;;;1.70;57.30;;;;;;5112694;28;20051;-74
2022/03/07 05:06:08;;;;;;;50.20;33.00;;;1.70;57.30;;;;;;5111794;28;20358;-75
2022/03/07 05:08:34;;;;;;;45.55;31.17;;;1.70;57.20;;;;;;5112133;28;20035;-74
2022/03/07 05:11:00;;;;;;;49.35;32.15;;;1.70;56.90;;;;;;5112697;28;20028;-74
2022/03/07 05:13:26;;;;;;;46.83;30.70;;;1.60;56.10;;;;;;5112540;28;20023;-74
2022/03/07 05:18:36;;;;;;;46.00;30.35;;;1.60;56.50;;;;;;5112320;28;20107;-73
2022/03/07 05:21:01;;;;;;;43.38;30.05;;;1.60;56.70;;;;;;5112211;28;20465;-77
2022/03/07 05:23:27;;;;;;;41.15;28.85;;;1.50;56.60;;;;;;5113993;28;20084;-74
2022/03/07 05:25:53;;;;;;;47.72;31.10;;;1.50;56.80;;;;;;5116295;28;20023;-74
2022/03/07 05:28:18;;;;;;;43.30;29.23;;;1.50;57.00;;;;;;5115811;28;20465;-73
2022/03/07 05:30:44;;;;;;;43.10;29.58;;;1.50;57.10;;;;;;5117240;28;20036;-74
2022/03/07 05:33:10;;;;;;;46.67;31.00;;;1.40;57.30;;;;;;5115886;28;20032;-75
2022/03/07 05:35:35;;;;;;;42.63;29.85;;;1.40;57.50;;;;;;5116161;28;20103;-74
2022/03/07 05:38:01;;;;;;;46.63;29.63;;;1.40;57.70;;;;;;5115831;28;20027;-74
2022/03/07 05:40:27;;;;;;;46.30;29.85;;;1.40;57.60;;;;;;5115485;28;20104;-74
2022/03/07 05:42:54;;;;;;;43.97;29.95;;;1.40;57.70;;;;;;5115902;28;20020;-74
2022/03/07 05:45:19;;;;;;;39.47;28.65;;;1.40;57.80;;;;;;5115064;28;20111;-73
2022/03/07 05:47:45;;;;;;;40.47;27.75;;;1.40;57.50;;;;;;5115571;28;20100;-74
2022/03/07 05:50:12;;;;;;;39.75;27.13;;;1.40;57.20;;;;;;5115223;28;20027;-72
2022/03/07 05:52:38;;;;;;;41.22;26.90;;;1.40;57.20;;;;;;5115730;28;20028;-73
2022/03/07 05:55:06;;;;;;;41.25;28.23;;;1.50;57.00;;;;;;5114615;28;20392;-77
2022/03/07 05:57:32;;;;;;;40.92;28.10;;;1.40;56.80;;;;;;5114382;28;20514;-73
2022/03/07 05:59:58;;;;;;;37.97;27.73;;;1.40;56.60;;;;;;5115858;28;20057;-75
2022/03/07 06:02:24;;;;;;;40.38;26.95;;;1.40;56.40;;;;;;5114800;28;20019;-75
2022/03/07 06:04:49;;;;;;;38.85;27.33;;;1.40;56.80;;;;;;5115603;28;20076;-74
2022/03/07 06:07:15;;;;;;;34.95;25.90;;;1.40;56.50;;;;;;5114973;28;20452;-72
2022/03/07 06:09:41;;;;;;;34.83;25.35;;;1.40;56.30;;;;;;5115475;28;20039;-74
2022/03/07 06:12:07;;;;;;;39.60;26.70;;;1.40;56.30;;;;;;5114837;28;20130;-74
2022/03/07 06:14:32;;;;;;;34.63;24.80;;;1.40;56.30;;;;;;5115045;28;20039;-74
2022/03/07 06:16:58;;;;;;;39.80;25.60;;;1.40;56.20;;;;;;5115759;27;20391;-75
2022/03/07 06:19:24;;;;;;;38.63;25.35;;;1.40;56.20;;;;;;5120096;27;20393;-75
2022/03/07 06:21:50;;;;;;;36.97;24.65;;;1.40;56.40;;;;;;5129664;27;20020;-73
2022/03/07 06:24:16;;;;;;;36.60;25.13;;;1.40;56.40;;;;;;5123975;27;20412;-75
2022/03/07 06:26:41;;;;;;;32.45;23.45;;;1.50;56.20;;;;;;5121280;27;20024;-73
2022/03/07 06:29:07;;;;;;;35.10;23.65;;;1.50;55.70;;;;;;5131030;27;20076;-75
2022/03/07 06:31:32;;;;;;;35.22;25.15;;;1.50;54.80;;;;;;5114390;28;20059;-73
2022/03/07 06:33:58;;;;;;;33.28;23.27;;;1.50;54.80;;;;;;5113552;28;20030;-74
2022/03/07 06:36:24;;;;;;;35.20;22.65;;;1.50;54.80;;;;;;5114312;28;20031;-74
2022/03/07 06:38:49;;;;;;;31.38;22.13;;;1.50;55.00;;;;;;5114846;28;20031;-73
2022/03/07 06:41:15;;;;;;;30.95;21.15;;;1.50;54.10;;;;;;5114138;28;20376;-73
2022/03/07 06:43:41;;;;;;;28.77;20.75;;;1.50;54.00;;;;;;5114842;28;20447;-73
2022/03/07 06:46:06;;;;;;;30.42;22.20;;;1.50;54.20;;;;;;5114409;28;20100;-73
2022/03/07 06:48:33;;;;;;;30.90;20.98;;;1.60;53.90;;;;;;5114211;28;20039;-74
2022/03/07 06:50:59;;;;;;;33.33;21.60;;;1.60;53.50;;;;;;5114501;28;20035;-73
2022/03/07 06:53:24;;;;;;;26.40;19.13;;;1.70;53.00;;;;;;5114013;28;20043;-73
2022/03/07 06:55:51;;;;;;;26.20;19.60;;;1.70;52.10;;;;;;5114353;28;20078;-73
2022/03/07 06:58:17;;;;;;;28.92;18.88;;;1.70;51.90;;;;;;5113596;28;20024;-73
2022/03/07 07:00:43;;;;;;;27.15;18.70;;;1.70;51.60;;;;;;5114265;28;20032;-74
2022/03/07 07:03:09;;;;;;;27.58;18.58;;;1.70;50.50;;;;;;5113758;28;20461;-74
2022/03/07 07:05:35;;;;;;;26.00;19.05;;;1.70;50.40;;;;;;5114220;27;20476;-74
2022/03/07 07:08:00;;;;;;;27.70;19.75;;;1.70;50.20;;;;;;5114212;28;20027;-73
2022/03/07 07:10:26;;;;;;;29.38;19.23;;;1.70;50.00;;;;;;5113194;28;20031;-73
2022/03/07 07:12:52;;;;;;;30.65;19.25;;;1.70;50.40;;;;;;5114023;28;20050;-74
2022/03/07 07:15:19;;;;;;;30.40;20.00;;;1.70;50.90;;;;;;5112856;28;20024;-74
2022/03/07 07:17:45;;;;;;;27.27;18.38;;;1.70;51.00;;;;;;5112652;28;20015;-73
2022/03/07 07:20:11;;;;;;;26.67;17.33;;;1.70;50.70;;;;;;5113316;28;20106;-73
2022/03/07 07:22:38;;;;;;;22.55;17.55;;;1.60;50.00;;;;;;5113775;28;20053;-73
2022/03/07 07:25:05;;;;;;;22.98;17.63;;;1.60;50.40;;;;;;5113800;28;20032;-73
2022/03/07 07:27:31;;;;;;;27.73;18.20;;;1.60;50.50;;;;;;5113240;28;20032;-74
2022/03/07 07:29:57;;;;;;;24.92;17.60;;;1.60;50.50;;;;;;5113724;28;20076;-73
2022/03/07 07:32:22;;;;;;;27.08;17.65;;;1.60;50.70;;;;;;5113524;28;20027;-75
2022/03/07 07:34:48;;;;;;;22.15;17.85;;;1.60;51.00;;;;;;5113862;28;20428;-76
2022/03/07 07:37:14;;;;;;;23.10;16.80;;;1.60;50.80;;;;;;5113089;28;20027;-76
2022/03/07 07:39:39;;;;;;;25.08;19.33;;;1.60;50.90;;;;;;5113865;28;20054;-73
2022/03/07 07:42:05;;;;;;;29.45;17.50;;;1.60;51.20;;;;;;5113929;28;20024;-72
2022/03/07 07:44:31;;;;;;;26.00;18.08;;;1.60;51.60;;;;;;5112917;28;20345;-73
2022/03/07 07:46:57;;;;;;;26.15;17.75;;;1.60;51.90;;;;;;5113337;28;20080;-73
2022/03/07 07:49:24;;;;;;;29.27;18.75;;;1.60;52.40;;;;;;5112436;28;20035;-73
2022/03/07 07:51:51;;;;;;;26.50;18.60;;;1.60;52.50;;;;;;5113319;28;20127;-74
2022/03/07 07:54:17;;;;;;;25.83;18.02;;;1.60;52.20;;;;;;5112046;28;20035;-73
2022/03/07 07:56:43;;;;;;;26.08;18.10;;;1.60;51.80;;;;;;5112875;28;20399;-73
2022/03/07 07:59:11;;;;;;;29.00;18.95;;;1.60;51.80;;;;;;5112122;28;20027;-74
2022/03/07 08:01:37;;;;;;;25.15;18.80;;;1.60;51.10;;;;;;5112675;28;20060;-73
2022/03/07 08:04:03;;;;;;;24.05;17.83;;;1.60;51.20;;;;;;5112814;28;20435;-73
2022/03/07 08:06:29;;;;;;;28.17;20.33;;;1.60;51.00;;;;;;5111027;28;20028;-74
2022/03/07 08:08:54;;;;;;;26.98;18.60;;;1.60;50.70;;;;;;5113071;28;20027;-72
2022/03/07 08:11:20;;;;;;;28.02;19.25;;;1.60;50.50;;;;;;5112402;28;20433;-73
2022/03/07 08:13:46;;;;;;;25.98;17.48;;;1.60;50.80;;;;;;5112941;28;20030;-73
2022/03/07 08:16:11;;;;;;;22.80;17.27;;;1.60;50.60;;;;;;5113118;28;20380;-73
2022/03/07 08:18:37;;;;;;;23.67;17.05;;;1.60;50.10;;;;;;5110899;28;20034;-72
2022/03/07 08:21:03;;;;;;;26.27;18.38;;;1.60;50.30;;;;;;5111364;28;20034;-74
2022/03/07 08:23:28;;;;;;;23.38;17.48;;;1.60;50.30;;;;;;5112729;28;20028;-74
2022/03/07 08:25:54;;;;;;;24.35;16.90;;;1.60;50.40;;;;;;5112960;28;20431;-74
2022/03/07 08:28:20;;;;;;;24.65;16.73;;;1.70;50.80;;;;;;5110763;28;20031;-74
2022/03/07 08:30:46;;;;;;;20.60;17.00;;;1.70;51.00;;;;;;5111397;28;20039;-74
2022/03/07 08:33:11;;;;;;;23.85;17.52;;;1.70;50.40;;;;;;5112900;28;20478;-74
2022/03/07 08:35:37;;;;;;;29.45;17.45;;;1.70;50.20;;;;;;5111870;28;20051;-74
2022/03/07 08:38:05;;;;;;;26.10;18.25;;;1.70;50.30;;;;;;5112966;28;20407;-74
2022/03/07 08:40:31;;;;;;;25.73;18.10;;;1.70;50.60;;;;;;5112122;28;20023;-73
2022/03/07 08:42:56;;;;;;;22.13;17.40;;;1.70;50.70;;;;;;5112837;28;20115;-73
2022/03/07 08:45:25;;;;;;;26.33;18.52;;;1.70;51.00;;;;;;5112037;28;20095;-74
2022/03/07 08:47:51;;;;;;;27.95;17.10;;;1.70;50.70;;;;;;5112434;28;20480;-73
2022/03/07 08:50:20;;;;;;;25.15;17.90;;;1.70;50.60;;;;;;5111734;28;20027;-75
2022/03/07 08:52:46;;;;;;;24.10;17.48;;;1.70;50.30;;;;;;5112505;28;20027;-75
2022/03/07 08:55:13;;;;;;;23.65;17.58;;;1.70;49.90;;;;;;5112381;28;20098;-75
2022/03/07 08:57:39;;;;;;;23.35;16.65;;;1.70;49.70;;;;;;5114023;28;20107;-72
2022/03/07 09:00:11;;;;;;;20.58;16.45;;;1.80;49.20;;;;;;5116701;28;20059;-74
2022/03/07 09:02:37;;;;;;;21.88;16.05;;;1.80;49.00;;;;;;5115969;28;20024;-73
2022/03/07 09:05:04;;;;;;;21.85;16.10;;;1.80;48.90;;;;;;5116614;28;20028;-73
2022/03/07 09:07:29;;;;;;;20.80;14.70;;;1.90;48.30;;;;;;5115940;28;20034;-75
2022/03/07 09:09:58;;;;;;;26.35;16.50;;;1.90;47.60;;;;;;5116051;28;20032;-73
2022/03/07 09:12:27;;;;;;;23.35;15.70;;;1.90;47.40;;;;;;5115730;28;20361;-74
2022/03/07 09:14:57;;;;;;;20.95;14.40;;;1.90;47.30;;;;;;5119964;28;20065;-75
2022/03/07 09:17:24;;;;;;;21.63;14.90;;;2.00;47.20;;;;;;5122230;28;20028;-76
2022/03/07 09:19:50;;;;;;;21.42;14.32;;;2.10;46.80;;;;;;5119690;28;20032;-73
2022/03/07 09:22:15;;;;;;;21.58;13.98;;;2.20;46.50;;;;;;5116991;28;20024;-73
2022/03/07 09:24:41;;;;;;;22.08;13.43;;;2.20;45.90;;;;;;5121555;28;20023;-73
2022/03/07 09:27:07;;;;;;;20.50;13.77;;;2.20;46.10;;;;;;5117554;28;20083;-74
2022/03/07 09:29:32;;;;;;;19.33;13.18;;;2.20;45.80;;;;;;5114499;28;20027;-74
2022/03/07 09:31:58;;;;;;;17.73;13.25;;;2.20;45.70;;;;;;5116327;28;20028;-73
2022/03/07 09:34:23;;;;;;;19.77;12.40;;;2.20;45.80;;;;;;5115424;28;20023;-74
2022/03/07 09:36:49;;;;;;;17.30;13.00;;;2.20;46.10;;;;;;5115870;28;20024;-73
2022/03/07 09:39:15;;;;;;;17.88;13.45;;;2.20;46.50;;;;;;5116104;28;20028;-75
2022/03/07 09:41:43;;;;;;;16.30;12.45;;;2.30;46.50;;;;;;5115132;28;20074;-73
2022/03/07 09:44:09;;;;;;;17.35;12.40;;;2.40;46.70;;;;;;5115767;28;20478;-73
2022/03/07 09:46:36;;;;;;;16.67;12.25;;;2.40;45.80;;;;;;5115536;28;20055;-74
2022/03/07 09:49:03;;;;;;;15.68;11.65;;;2.40;45.60;;;;;;5114475;28;20028;-74
2022/03/07 09:51:29;;;;;;;18.95;12.40;;;2.50;45.40;;;;;;5115023;28;20035;-74
2022/03/07 09:53:54;;;;;;;20.63;12.25;;;2.50;45.10;;;;;;5114341;28;20375;-74
2022/03/07 09:56:20;;;;;;;16.67;11.45;;;2.40;45.00;;;;;;5115672;28;20064;-74
2022/03/07 09:58:46;;;;;;;16.35;11.43;;;2.50;45.10;;;;;;5115449;28;20027;-73
2022/03/07 10:01:15;;;;;;;19.15;11.25;;;2.50;45.20;;;;;;5115687;28;20119;-73
2022/03/07 10:03:41;;;;;;;17.58;10.93;;;2.60;44.80;;;;;;5114966;28;20039;-74
2022/03/07 10:06:18;;;;;;;13.05;9.95;;;2.70;44.40;;;;;;5115488;28;20031;-73
2022/03/07 10:08:55;;;;;;;18.23;10.27;;;2.80;43.20;;;;;;5114204;28;20027;-73
2022/03/07 10:11:22;;;;;;;14.82;10.07;;;2.80;43.20;;;;;;5115353;28;20063;-74
2022/03/07 10:13:53;;;;;;;13.32;10.05;;;2.80;43.50;;;;;;5115301;28;20069;-74
2022/03/07 10:16:20;;;;;;;;;;;2.90;44.00;;;;;;5115760;28;20024;-73
2022/03/07 10:18:51;;;;;;;13.02;8.35;;;2.90;42.60;;;;;;5113549;28;19943;-72
2022/03/07 10:21:24;;;;;;;11.85;8.20;;;2.80;42.10;;;;;;5115213;28;20028;-72
2022/03/07 10:23:52;;;;;;;13.95;8.27;;;2.80;42.20;;;;;;5115246;28;20038;-72
2022/03/07 10:26:18;;;;;;;11.30;7.72;;;2.90;42.40;;;;;;5114810;28;20469;-73
2022/03/07 10:28:52;;;;;;;11.27;8.43;;;2.90;42.70;;;;;;5114315;28;20038;-73
2022/03/07 10:31:18;;;;;;;15.63;9.25;;;3.00;42.70;;;;;;5114762;28;20019;-73
2022/03/07 10:33:45;;;;;;;14.30;10.82;;;3.00;42.90;;;;;;5114225;28;20034;-74
2022/03/07 10:36:11;;;;;;;14.30;10.38;;;3.00;43.70;;;;;;5114712;28;20027;-72
2022/03/07 10:38:37;;;;;;;13.95;10.85;;;3.10;45.20;;;;;;5114146;27;20023;-73
2022/03/07 10:41:04;;;;;;;19.77;11.18;;;3.00;44.20;;;;;;5114903;28;20111;-73
2022/03/07 10:43:30;;;;;;;14.90;10.10;;;3.00;44.40;;;;;;5114150;28;20031;-74
2022/03/07 10:46:01;;;;;;;12.85;9.60;;;3.00;44.10;;;;;;5114658;28;20068;-74
2022/03/07 10:48:29;;;;;;;16.00;10.25;;;3.00;44.40;;;;;;5113608;28;20039;-74
2022/03/07 10:50:59;;;;;;;13.43;10.07;;;2.90;44.50;;;;;;5114213;28;20476;-73
2022/03/07 10:53:25;;;;;;;13.88;9.82;;;2.90;45.00;;;;;;5113233;28;20035;-73
2022/03/07 10:55:56;;;;;;;15.00;9.30;;;2.90;45.00;;;;;;5113167;28;20122;-74
2022/03/07 10:58:22;;;;;;;14.27;8.90;;;2.80;45.80;;;;;;5113303;28;20376;-73
2022/03/07 11:00:49;;;;;;;11.50;8.68;;;2.80;46.30;;;;;;5114062;28;20043;-73
2022/03/07 11:03:20;;;;;;;17.20;9.88;;;2.80;46.20;;;;;;5113335;28;20024;-73
2022/03/07 11:05:47;;;;;;;14.80;8.93;;;2.90;46.10;;;;;;5112451;28;20281;-73
2022/03/07 11:08:15;;;;;;;12.65;8.38;;;2.90;46.50;;;;;;5113708;28;20449;-73
2022/03/07 11:10:45;;;;;;;12.50;8.80;;;2.90;45.70;;;;;;5113394;28;20119;-74
2022/03/07 11:13:13;;;;;;;11.00;8.40;;;3.00;46.20;;;;;;5114021;28;20058;-73
2022/03/07 11:15:42;;;;;;;10.32;8.25;;;3.00;46.00;;;;;;5112183;28;20024;-73
2022/03/07 11:18:12;;;;;;;13.75;9.00;;;3.10;45.60;;;;;;5113707;28;20440;-73
2022/03/07 11:20:43;;;;;;;12.02;8.93;;;3.00;45.30;;;;;;5112746;28;20115;-73
2022/03/07 11:23:11;;;;;;;12.38;8.95;;;3.10;46.00;;;;;;5113937;28;20034;-73
2022/03/07 11:25:41;;;;;;;13.68;9.73;;;3.10;45.90;;;;;;5111956;28;20023;-73
2022/03/07 11:28:07;;;;;;;13.02;8.52;;;3.00;45.80;;;;;;5113833;28;20024;-74
2022/03/07 11:30:42;;;;;;;16.85;9.38;;;3.00;46.20;;;;;;5113015;28;20031;-75
2022/03/07 11:33:10;;;;;;;12.75;8.35;;;3.00;46.80;;;;;;5113685;28;20031;-74
2022/03/07 11:35:37;;;;;;;17.50;8.38;;;2.90;47.30;;;;;;5112561;28;20035;-73
2022/03/07 11:38:23;;;;;;;14.40;8.60;;;2.90;47.40;;;;;;5113349;28;20038;-73
2022/03/07 11:40:57;;;;;;;14.43;8.50;;;2.90;47.40;;;;;;5113065;28;20032;-74
2022/03/07 11:43:24;;;;;;;10.48;7.28;;;2.90;47.60;;;;;;5113678;28;20035;-73
2022/03/07 11:45:51;;;;;;;10.77;7.28;;;3.00;47.20;;;;;;5112799;28;20526;-73
2022/03/07 11:48:16;;;;;;;9.55;6.63;;;3.00;46.40;;;;;;5113482;28;20051;-73
2022/03/07 11:50:42;;;;;;;10.02;7.25;;;3.00;46.60;;;;;;5112440;28;20496;-75
2022/03/07 11:53:08;;;;;;;11.73;6.95;;;3.00;47.30;;;;;;5113389;28;20145;-74
2022/03/07 11:55:44;;;;;;;11.30;7.45;;;3.00;47.40;;;;;;5112480;28;20044;-75
2022/03/07 11:58:11;;;;;;;13.15;7.65;;;3.00;47.80;;;;;;5113520;28;20425;-74
2022/03/07 12:00:36;;;;;;;11.23;7.28;;;3.00;48.20;;;;;;5112751;28;20027;-74
2022/03/07 12:03:13;;;;;;;14.55;8.48;;;2.90;48.60;;;;;;5111817;28;20479;-74
2022/03/07 12:05:41;;;;;;;12.38;7.82;;;2.90;49.40;;;;;;5112724;28;20106;-74
2022/03/07 12:08:08;;;;;;;14.05;8.45;;;2.80;49.50;;;;;;5113215;28;20110;-74
2022/03/07 12:10:34;;;;;;;15.43;7.68;;;2.80;49.70;;;;;;5112438;28;20020;-74
2022/03/07 12:13:07;;;;;;;11.02;7.85;;;2.80;50.10;;;;;;5112903;28;20558;-73
2022/03/07 12:15:44;;;;;;;11.55;7.55;;;2.90;50.40;;;;;;5112354;28;20027;-74
2022/03/07 12:18:10;;;;;;;10.98;7.65;;;2.90;50.80;;;;;;5113187;28;20100;-74
2022/03/07 12:20:46;;;;;;;9.00;7.05;;;2.90;50.50;;;;;;5112169;28;20062;-75
2022/03/07 12:23:12;;;;;;;11.45;8.20;;;2.90;50.60;;;;;;5113171;28;20043;-74
2022/03/07 12:25:37;;;;;;;13.27;7.85;;;2.90;50.90;;;;;;5112253;28;20024;-74
2022/03/07 12:28:03;;;;;;;14.65;8.63;;;3.00;51.20;;;;;;5112558;28;20030;-73
2022/03/07 12:30:29;;;;;;;11.60;8.75;;;3.00;51.50;;;;;;5112642;28;20117;-72
2022/03/07 12:32:55;;;;;;;15.48;8.50;;;3.00;51.80;;;;;;5112496;28;20376;-72
2022/03/07 12:35:20;;;;;;;11.48;8.02;;;3.10;52.00;;;;;;5111653;28;20031;-74
2022/03/07 12:37:46;;;;;;;15.73;9.02;;;3.00;52.20;;;;;;5112157;28;20353;-74